Share

San Ygnacio, TX

Falfurrias (KBKS) Elev 112 ft | 27.21 °N, 98.12 °W | Change Station

Current weather conditions updated 9 minutes ago

Mostly Cloudy
Mostly Cloudy
55 °F
Feels Like 55 °F
N
0
Wind Variable Wind from North
Sunrise 7:09 AM
Sunset 8:04 PM
Moon Waning Gibbous

Today is forecast to be Warmer than yesterday.

Pressure 30.10 in
Visibility 4.0 miles
Clouds Mostly Cloudy 6000 ft
Dew Point 54 °F
Humidity 94%
Rainfall 0.00 in
Snow Depth Not available.
UV 0 out of 16
Pollen 9.80 out of 12
Air Quality Not available.
Flu Activity Local Activity
METAR KBKS 191155Z AUTO 00000KT 4SM BKN060 13/12 A3010 RMK AO1 T01300120 10157 20130

More Conditions Fewer Conditions

Pressure 30.10 in
Visibility 4.0 miles
Clouds Mostly Cloudy 6000 ft
Dew Point 54 °F
Humidity 94%
Rainfall 0.00 in
Snow Depth Not available.
UV 0 out of 16
Pollen 9.80 out of 12
Air Quality Not available.
Flu Activity Local Activity
METAR KBKS 191155Z AUTO 00000KT 4SM BKN060 13/12 A3010 RMK AO1 T01300120 10157 20130

More Conditions Fewer Conditions

10-Day Weather Forecast

Almanac

Astronomy

Apr. 19, 2014 Rise Set
Actual Time 7:09 AM CDT 8:04 PM CDT
Civil Twilight 6:45 AM CDT 8:28 PM CDT
Nautical Twilight 6:17 AM CDT 8:56 PM CDT
Astronomical Twilight 5:48 AM CDT 9:25 PM CDT
Moon No Moon Rise 10:41 AM CDT
Length of Visible Light 13h 42m
Length of Day
12h 54m
Tomorrow will be 1m 29s longer.
Waning Gibbous, 80% of the Moon is Illuminated
Today
Waning Gibbous
Apr 22
Last Quarter
Apr 29
New
May 6
First Quarter
May 14
Full

Today's Extremes

State Highs State Lows

Community

  • Bleeding Hearts
    Bleeding Hearts
  • Sunset Silhouettes
    Sunset Silhouettes
  • FL sunset Perico Isle
    FL sunset Perico Isle
  • Cloudy spring view
    Cloudy spring view
  • Old barn
    Old barn

WunderPhotos

Upload Photos

1,702,687 photos uploaded!

Nearby

Snow Depth

Station Depth Elevation
No new snow has been reported.

Coastal Water Temperatures

Place Temperature
No Stations Reporting

Earthquake Activity

City Distance Mag. Time & Date
No recent earthquake activity has been reported nearby.
Minimum magnitude displayed is 2.5.

Nearby Weather Stations

There are no personal weather stations in this area.

What do you think?

We're not finished. Please let us know what you like, what you don't like, and what you are still missing.